sensor_id;sensor_type;location;lat;lon;timestamp;temperature;humidity
31979;DHT22;18502;43.574;1.276;2023-12-20T00:00:36;7.40;99.90
31979;DHT22;18502;43.574;1.276;2023-12-20T00:03:03;7.50;99.90
31979;DHT22;18502;43.574;1.276;2023-12-20T00:05:29;7.50;99.90
31979;DHT22;18502;43.574;1.276;2023-12-20T00:07:54;7.50;99.90
31979;DHT22;18502;43.574;1.276;2023-12-20T00:10:20;7.50;99.90
31979;DHT22;18502;43.574;1.276;2023-12-20T00:12:45;7.50;99.90
31979;DHT22;18502;43.574;1.276;2023-12-20T00:15:11;7.50;99.90
31979;DHT22;18502;43.574;1.276;2023-12-20T00:17:37;7.50;99.90
31979;DHT22;18502;43.574;1.276;2023-12-20T00:20:02;7.50;99.90
31979;DHT22;18502;43.574;1.276;2023-12-20T00:22:28;7.60;99.90
31979;DHT22;18502;43.574;1.276;2023-12-20T00:24:54;7.60;99.90
31979;DHT22;18502;43.574;1.276;2023-12-20T00:27:19;7.60;99.90
31979;DHT22;18502;43.574;1.276;2023-12-20T00:29:45;7.60;99.90
31979;DHT22;18502;43.574;1.276;2023-12-20T00:32:13;7.60;99.90
31979;DHT22;18502;43.574;1.276;2023-12-20T00:34:39;7.60;99.90
31979;DHT22;18502;43.574;1.276;2023-12-20T00:37:04;7.60;99.90
31979;DHT22;18502;43.574;1.276;2023-12-20T00:39:31;7.60;99.90
31979;DHT22;18502;43.574;1.276;2023-12-20T00:41:58;7.60;99.90
31979;DHT22;18502;43.574;1.276;2023-12-20T00:44:24;7.50;99.90
31979;DHT22;18502;43.574;1.276;2023-12-20T00:46:49;7.60;99.90
31979;DHT22;18502;43.574;1.276;2023-12-20T00:49:15;7.60;99.90
31979;DHT22;18502;43.574;1.276;2023-12-20T00:51:40;7.60;99.90
31979;DHT22;18502;43.574;1.276;2023-12-20T00:54:06;7.60;99.90
31979;DHT22;18502;43.574;1.276;2023-12-20T00:56:32;7.60;99.90
31979;DHT22;18502;43.574;1.276;2023-12-20T00:58:57;7.60;99.90
31979;DHT22;18502;43.574;1.276;2023-12-20T01:01:23;7.70;99.90
31979;DHT22;18502;43.574;1.276;2023-12-20T01:03:48;7.80;99.90
31979;DHT22;18502;43.574;1.276;2023-12-20T01:06:16;7.80;99.90
31979;DHT22;18502;43.574;1.276;2023-12-20T01:08:42;7.80;99.90
31979;DHT22;18502;43.574;1.276;2023-12-20T01:11:08;7.80;99.90
31979;DHT22;18502;43.574;1.276;2023-12-20T01:13:33;7.90;99.90
31979;DHT22;18502;43.574;1.276;2023-12-20T01:15:59;7.90;99.90
31979;DHT22;18502;43.574;1.276;2023-12-20T01:18:25;7.90;99.90
31979;DHT22;18502;43.574;1.276;2023-12-20T01:20:50;7.90;99.90
31979;DHT22;18502;43.574;1.276;2023-12-20T01:23:16;8.00;99.90
31979;DHT22;18502;43.574;1.276;2023-12-20T01:25:42;8.00;99.90
31979;DHT22;18502;43.574;1.276;2023-12-20T01:28:08;8.10;99.90
31979;DHT22;18502;43.574;1.276;2023-12-20T01:30:34;8.10;99.90
31979;DHT22;18502;43.574;1.276;2023-12-20T01:33:00;8.10;99.90
31979;DHT22;18502;43.574;1.276;2023-12-20T01:35:26;8.00;99.90
31979;DHT22;18502;43.574;1.276;2023-12-20T01:37:52;8.10;99.90
31979;DHT22;18502;43.574;1.276;2023-12-20T01:40:22;8.10;99.90
31979;DHT22;18502;43.574;1.276;2023-12-20T01:42:57;8.00;99.90
31979;DHT22;18502;43.574;1.276;2023-12-20T01:45:23;8.10;99.90
31979;DHT22;18502;43.574;1.276;2023-12-20T01:47:48;8.10;99.90
31979;DHT22;18502;43.574;1.276;2023-12-20T01:50:15;8.20;99.90
31979;DHT22;18502;43.574;1.276;2023-12-20T01:52:42;8.20;99.90
31979;DHT22;18502;43.574;1.276;2023-12-20T01:55:08;8.20;99.90
31979;DHT22;18502;43.574;1.276;2023-12-20T01:57:40;8.20;99.90
31979;DHT22;18502;43.574;1.276;2023-12-20T02:00:06;8.20;99.90
31979;DHT22;18502;43.574;1.276;2023-12-20T02:02:33;8.20;99.90
31979;DHT22;18502;43.574;1.276;2023-12-20T02:04:59;8.20;99.90
31979;DHT22;18502;43.574;1.276;2023-12-20T02:07:24;8.20;99.90
31979;DHT22;18502;43.574;1.276;2023-12-20T02:09:50;8.20;99.90
31979;DHT22;18502;43.574;1.276;2023-12-20T02:12:16;8.20;99.90
31979;DHT22;18502;43.574;1.276;2023-12-20T02:14:42;8.20;99.90
31979;DHT22;18502;43.574;1.276;2023-12-20T02:17:07;8.30;99.90
31979;DHT22;18502;43.574;1.276;2023-12-20T02:19:33;8.30;99.90
31979;DHT22;18502;43.574;1.276;2023-12-20T02:22:09;8.30;99.90
31979;DHT22;18502;43.574;1.276;2023-12-20T02:24:35;8.30;99.90
31979;DHT22;18502;43.574;1.276;2023-12-20T02:27:01;8.30;99.90
31979;DHT22;18502;43.574;1.276;2023-12-20T02:29:27;8.20;99.90
31979;DHT22;18502;43.574;1.276;2023-12-20T02:31:52;8.20;99.90
31979;DHT22;18502;43.574;1.276;2023-12-20T02:34:18;8.20;99.90
31979;DHT22;18502;43.574;1.276;2023-12-20T02:36:44;8.20;99.90
31979;DHT22;18502;43.574;1.276;2023-12-20T02:39:09;8.20;99.90
31979;DHT22;18502;43.574;1.276;2023-12-20T02:41:35;8.20;99.90
31979;DHT22;18502;43.574;1.276;2023-12-20T02:44:01;8.20;99.90
31979;DHT22;18502;43.574;1.276;2023-12-20T02:46:27;8.20;99.90
31979;DHT22;18502;43.574;1.276;2023-12-20T02:48:53;8.20;99.90
31979;DHT22;18502;43.574;1.276;2023-12-20T02:51:18;8.20;99.90
31979;DHT22;18502;43.574;1.276;2023-12-20T02:53:44;8.20;99.90
31979;DHT22;18502;43.574;1.276;2023-12-20T02:56:10;8.20;99.90
31979;DHT22;18502;43.574;1.276;2023-12-20T02:58:35;8.20;99.90
31979;DHT22;18502;43.574;1.276;2023-12-20T03:01:01;8.30;99.90
31979;DHT22;18502;43.574;1.276;2023-12-20T03:03:27;8.20;99.90
31979;DHT22;18502;43.574;1.276;2023-12-20T03:05:52;8.20;99.90
31979;DHT22;18502;43.574;1.276;2023-12-20T03:08:18;8.10;99.90
31979;DHT22;18502;43.574;1.276;2023-12-20T03:10:44;8.10;99.90
31979;DHT22;18502;43.574;1.276;2023-12-20T03:13:10;8.00;99.90
31979;DHT22;18502;43.574;1.276;2023-12-20T03:15:35;7.90;99.90
31979;DHT22;18502;43.574;1.276;2023-12-20T03:18:02;7.80;99.90
31979;DHT22;18502;43.574;1.276;2023-12-20T03:20:28;7.80;99.90
31979;DHT22;18502;43.574;1.276;2023-12-20T03:22:54;7.70;99.90
31979;DHT22;18502;43.574;1.276;2023-12-20T03:25:21;7.70;99.90
31979;DHT22;18502;43.574;1.276;2023-12-20T03:27:46;7.60;99.90
31979;DHT22;18502;43.574;1.276;2023-12-20T03:30:12;7.60;99.90
31979;DHT22;18502;43.574;1.276;2023-12-20T03:32:38;7.60;99.90
31979;DHT22;18502;43.574;1.276;2023-12-20T03:35:04;7.50;99.90
31979;DHT22;18502;43.574;1.276;2023-12-20T03:37:30;7.50;99.90
31979;DHT22;18502;43.574;1.276;2023-12-20T03:39:56;7.40;99.90
31979;DHT22;18502;43.574;1.276;2023-12-20T03:42:21;7.40;99.90
31979;DHT22;18502;43.574;1.276;2023-12-20T03:44:47;7.40;99.90
31979;DHT22;18502;43.574;1.276;2023-12-20T03:47:12;7.40;99.90
31979;DHT22;18502;43.574;1.276;2023-12-20T03:49:38;7.40;99.90
31979;DHT22;18502;43.574;1.276;2023-12-20T03:52:04;7.40;99.90
31979;DHT22;18502;43.574;1.276;2023-12-20T03:54:30;7.40;99.90
31979;DHT22;18502;43.574;1.276;2023-12-20T03:56:56;7.40;99.90
31979;DHT22;18502;43.574;1.276;2023-12-20T03:59:21;7.40;99.90
31979;DHT22;18502;43.574;1.276;2023-12-20T04:01:47;7.40;99.90
31979;DHT22;18502;43.574;1.276;2023-12-20T04:04:13;7.40;99.90
31979;DHT22;18502;43.574;1.276;2023-12-20T04:06:39;7.40;99.90
31979;DHT22;18502;43.574;1.276;2023-12-20T04:09:05;7.40;99.90
31979;DHT22;18502;43.574;1.276;2023-12-20T04:11:31;7.40;99.90
31979;DHT22;18502;43.574;1.276;2023-12-20T04:13:56;7.50;99.90
31979;DHT22;18502;43.574;1.276;2023-12-20T04:16:22;7.50;99.90
31979;DHT22;18502;43.574;1.276;2023-12-20T04:18:47;7.40;99.90
31979;DHT22;18502;43.574;1.276;2023-12-20T04:21:13;7.50;99.90
31979;DHT22;18502;43.574;1.276;2023-12-20T04:23:39;7.50;99.90
31979;DHT22;18502;43.574;1.276;2023-12-20T04:26:04;7.50;99.90
31979;DHT22;18502;43.574;1.276;2023-12-20T04:28:30;7.60;99.90
31979;DHT22;18502;43.574;1.276;2023-12-20T04:30:56;7.60;99.90
31979;DHT22;18502;43.574;1.276;2023-12-20T04:33:22;7.60;99.90
31979;DHT22;18502;43.574;1.276;2023-12-20T04:35:48;7.60;99.90
31979;DHT22;18502;43.574;1.276;2023-12-20T04:38:14;7.60;99.90
31979;DHT22;18502;43.574;1.276;2023-12-20T04:40:39;7.70;99.90
31979;DHT22;18502;43.574;1.276;2023-12-20T04:43:07;7.70;99.90
31979;DHT22;18502;43.574;1.276;2023-12-20T04:45:33;7.70;99.90
31979;DHT22;18502;43.574;1.276;2023-12-20T04:47:58;7.70;99.90
31979;DHT22;18502;43.574;1.276;2023-12-20T04:50:24;7.90;99.90
31979;DHT22;18502;43.574;1.276;2023-12-20T04:52:50;8.00;99.90
31979;DHT22;18502;43.574;1.276;2023-12-20T04:55:16;8.00;99.90
31979;DHT22;18502;43.574;1.276;2023-12-20T04:57:41;8.00;99.90
31979;DHT22;18502;43.574;1.276;2023-12-20T05:00:08;8.00;99.90
31979;DHT22;18502;43.574;1.276;2023-12-20T05:02:35;8.10;99.90
31979;DHT22;18502;43.574;1.276;2023-12-20T05:05:01;8.10;99.90
31979;DHT22;18502;43.574;1.276;2023-12-20T05:07:26;8.20;99.90
31979;DHT22;18502;43.574;1.276;2023-12-20T05:09:52;8.20;99.90
31979;DHT22;18502;43.574;1.276;2023-12-20T05:12:18;8.30;99.90
31979;DHT22;18502;43.574;1.276;2023-12-20T05:14:43;8.40;99.90
31979;DHT22;18502;43.574;1.276;2023-12-20T05:17:09;8.40;99.90
31979;DHT22;18502;43.574;1.276;2023-12-20T05:19:34;8.40;99.90
31979;DHT22;18502;43.574;1.276;2023-12-20T05:22:01;8.50;99.90
31979;DHT22;18502;43.574;1.276;2023-12-20T05:24:27;8.50;99.90
31979;DHT22;18502;43.574;1.276;2023-12-20T05:26:53;8.50;99.90
31979;DHT22;18502;43.574;1.276;2023-12-20T05:29:19;8.50;99.90
31979;DHT22;18502;43.574;1.276;2023-12-20T05:31:45;8.50;99.90
31979;DHT22;18502;43.574;1.276;2023-12-20T05:34:10;8.50;99.90
31979;DHT22;18502;43.574;1.276;2023-12-20T05:36:37;8.50;99.90
31979;DHT22;18502;43.574;1.276;2023-12-20T05:39:02;8.50;99.90
31979;DHT22;18502;43.574;1.276;2023-12-20T05:41:33;8.60;99.90
31979;DHT22;18502;43.574;1.276;2023-12-20T05:43:58;8.50;99.90
31979;DHT22;18502;43.574;1.276;2023-12-20T05:46:25;8.50;99.90
31979;DHT22;18502;43.574;1.276;2023-12-20T05:48:50;8.60;99.90
31979;DHT22;18502;43.574;1.276;2023-12-20T05:51:17;8.60;99.90
31979;DHT22;18502;43.574;1.276;2023-12-20T05:53:43;8.60;99.90
31979;DHT22;18502;43.574;1.276;2023-12-20T05:56:10;8.70;99.90
31979;DHT22;18502;43.574;1.276;2023-12-20T05:58:35;8.70;99.90
31979;DHT22;18502;43.574;1.276;2023-12-20T06:01:04;8.70;99.90
31979;DHT22;18502;43.574;1.276;2023-12-20T06:03:29;8.70;99.90
31979;DHT22;18502;43.574;1.276;2023-12-20T06:05:55;8.70;99.90
31979;DHT22;18502;43.574;1.276;2023-12-20T06:08:21;8.70;99.90
31979;DHT22;18502;43.574;1.276;2023-12-20T06:10:47;8.80;99.90
31979;DHT22;18502;43.574;1.276;2023-12-20T06:13:12;8.80;99.90
31979;DHT22;18502;43.574;1.276;2023-12-20T06:15:39;8.80;99.90
31979;DHT22;18502;43.574;1.276;2023-12-20T06:18:06;8.80;99.90
31979;DHT22;18502;43.574;1.276;2023-12-20T06:20:32;8.80;99.90
31979;DHT22;18502;43.574;1.276;2023-12-20T06:22:58;8.90;99.90
31979;DHT22;18502;43.574;1.276;2023-12-20T06:25:24;8.90;99.90
31979;DHT22;18502;43.574;1.276;2023-12-20T06:27:49;8.90;99.90
31979;DHT22;18502;43.574;1.276;2023-12-20T06:30:16;8.90;99.90
31979;DHT22;18502;43.574;1.276;2023-12-20T06:32:42;9.00;99.90
31979;DHT22;18502;43.574;1.276;2023-12-20T06:35:09;9.00;99.90
31979;DHT22;18502;43.574;1.276;2023-12-20T06:37:35;9.00;99.90
31979;DHT22;18502;43.574;1.276;2023-12-20T06:40:00;9.10;99.90
31979;DHT22;18502;43.574;1.276;2023-12-20T06:42:26;9.10;99.90
31979;DHT22;18502;43.574;1.276;2023-12-20T06:44:52;9.10;99.90
31979;DHT22;18502;43.574;1.276;2023-12-20T06:47:18;9.20;99.90
31979;DHT22;18502;43.574;1.276;2023-12-20T06:49:44;9.20;99.90
31979;DHT22;18502;43.574;1.276;2023-12-20T06:52:09;9.20;99.90
31979;DHT22;18502;43.574;1.276;2023-12-20T06:54:35;9.20;99.90
31979;DHT22;18502;43.574;1.276;2023-12-20T06:57:01;9.20;99.90
31979;DHT22;18502;43.574;1.276;2023-12-20T06:59:29;9.20;99.90
31979;DHT22;18502;43.574;1.276;2023-12-20T07:01:55;9.30;99.90
31979;DHT22;18502;43.574;1.276;2023-12-20T07:04:20;9.30;99.90
31979;DHT22;18502;43.574;1.276;2023-12-20T07:06:48;9.30;99.90
31979;DHT22;18502;43.574;1.276;2023-12-20T07:09:16;9.30;99.90
31979;DHT22;18502;43.574;1.276;2023-12-20T07:11:42;9.30;99.90
31979;DHT22;18502;43.574;1.276;2023-12-20T07:14:08;9.30;99.90
31979;DHT22;18502;43.574;1.276;2023-12-20T07:16:34;9.20;99.90
31979;DHT22;18502;43.574;1.276;2023-12-20T07:19:00;9.30;99.90
31979;DHT22;18502;43.574;1.276;2023-12-20T07:21:25;9.20;99.90
31979;DHT22;18502;43.574;1.276;2023-12-20T07:23:51;9.20;99.90
31979;DHT22;18502;43.574;1.276;2023-12-20T07:26:17;9.10;99.90
31979;DHT22;18502;43.574;1.276;2023-12-20T07:28:43;9.10;99.90
31979;DHT22;18502;43.574;1.276;2023-12-20T07:31:08;9.00;99.90
31979;DHT22;18502;43.574;1.276;2023-12-20T07:33:34;9.00;99.90
31979;DHT22;18502;43.574;1.276;2023-12-20T07:36:00;9.00;99.90
31979;DHT22;18502;43.574;1.276;2023-12-20T07:38:26;8.90;99.90
31979;DHT22;18502;43.574;1.276;2023-12-20T07:40:52;8.90;99.90
31979;DHT22;18502;43.574;1.276;2023-12-20T07:43:17;8.90;99.90
31979;DHT22;18502;43.574;1.276;2023-12-20T07:45:43;8.90;99.90
31979;DHT22;18502;43.574;1.276;2023-12-20T07:48:09;8.80;99.90
31979;DHT22;18502;43.574;1.276;2023-12-20T07:50:34;8.80;99.90
31979;DHT22;18502;43.574;1.276;2023-12-20T07:53:00;8.80;99.90
31979;DHT22;18502;43.574;1.276;2023-12-20T07:55:26;8.80;99.90
31979;DHT22;18502;43.574;1.276;2023-12-20T07:57:52;8.80;99.90
31979;DHT22;18502;43.574;1.276;2023-12-20T08:00:18;8.70;99.90
31979;DHT22;18502;43.574;1.276;2023-12-20T08:02:44;8.70;99.90
31979;DHT22;18502;43.574;1.276;2023-12-20T08:05:10;8.60;99.90
31979;DHT22;18502;43.574;1.276;2023-12-20T08:07:36;8.60;99.90
31979;DHT22;18502;43.574;1.276;2023-12-20T08:10:02;8.60;99.90
31979;DHT22;18502;43.574;1.276;2023-12-20T08:12:28;8.60;99.90
31979;DHT22;18502;43.574;1.276;2023-12-20T08:14:54;8.60;99.90
31979;DHT22;18502;43.574;1.276;2023-12-20T08:17:20;8.50;99.90
31979;DHT22;18502;43.574;1.276;2023-12-20T08:19:45;8.50;99.90
31979;DHT22;18502;43.574;1.276;2023-12-20T08:22:11;8.50;99.90
31979;DHT22;18502;43.574;1.276;2023-12-20T08:24:37;8.50;99.90
31979;DHT22;18502;43.574;1.276;2023-12-20T08:27:04;8.50;99.90
31979;DHT22;18502;43.574;1.276;2023-12-20T08:29:29;8.60;99.90
31979;DHT22;18502;43.574;1.276;2023-12-20T08:31:56;8.50;99.90
31979;DHT22;18502;43.574;1.276;2023-12-20T08:34:22;8.60;99.90
31979;DHT22;18502;43.574;1.276;2023-12-20T08:36:50;8.60;99.90
31979;DHT22;18502;43.574;1.276;2023-12-20T08:39:16;8.60;99.90
31979;DHT22;18502;43.574;1.276;2023-12-20T08:41:42;8.60;99.90
31979;DHT22;18502;43.574;1.276;2023-12-20T08:44:08;8.50;99.90
31979;DHT22;18502;43.574;1.276;2023-12-20T08:46:34;8.50;99.90
31979;DHT22;18502;43.574;1.276;2023-12-20T08:49:01;8.60;99.90
31979;DHT22;18502;43.574;1.276;2023-12-20T08:51:26;8.50;99.90
31979;DHT22;18502;43.574;1.276;2023-12-20T08:53:53;8.60;99.90
31979;DHT22;18502;43.574;1.276;2023-12-20T08:56:19;8.70;99.90
31979;DHT22;18502;43.574;1.276;2023-12-20T08:58:45;8.70;99.90
31979;DHT22;18502;43.574;1.276;2023-12-20T09:01:12;8.70;99.90
31979;DHT22;18502;43.574;1.276;2023-12-20T09:03:37;8.70;99.90
31979;DHT22;18502;43.574;1.276;2023-12-20T09:06:03;8.70;99.90
31979;DHT22;18502;43.574;1.276;2023-12-20T09:08:29;8.80;99.90
31979;DHT22;18502;43.574;1.276;2023-12-20T09:10:55;8.80;99.90
31979;DHT22;18502;43.574;1.276;2023-12-20T09:13:20;8.80;99.90
31979;DHT22;18502;43.574;1.276;2023-12-20T09:15:47;8.80;99.90
31979;DHT22;18502;43.574;1.276;2023-12-20T09:18:14;8.70;99.90
31979;DHT22;18502;43.574;1.276;2023-12-20T09:20:39;8.80;99.90
31979;DHT22;18502;43.574;1.276;2023-12-20T09:23:05;8.80;99.90
31979;DHT22;18502;43.574;1.276;2023-12-20T09:25:31;8.90;99.90
31979;DHT22;18502;43.574;1.276;2023-12-20T09:27:56;8.70;99.90
31979;DHT22;18502;43.574;1.276;2023-12-20T09:30:22;8.70;99.90
31979;DHT22;18502;43.574;1.276;2023-12-20T09:32:48;8.70;99.90
31979;DHT22;18502;43.574;1.276;2023-12-20T09:35:13;8.70;99.90
31979;DHT22;18502;43.574;1.276;2023-12-20T09:37:40;8.60;99.90
31979;DHT22;18502;43.574;1.276;2023-12-20T09:40:12;8.60;99.90
31979;DHT22;18502;43.574;1.276;2023-12-20T09:45:14;8.70;99.90
31979;DHT22;18502;43.574;1.276;2023-12-20T09:47:43;8.80;99.90
31979;DHT22;18502;43.574;1.276;2023-12-20T09:50:09;8.90;99.90
31979;DHT22;18502;43.574;1.276;2023-12-20T09:52:36;8.90;99.90
31979;DHT22;18502;43.574;1.276;2023-12-20T09:55:04;9.00;99.90
31979;DHT22;18502;43.574;1.276;2023-12-20T09:57:32;8.90;99.90
31979;DHT22;18502;43.574;1.276;2023-12-20T09:59:57;9.00;99.90
31979;DHT22;18502;43.574;1.276;2023-12-20T10:02:25;9.10;99.90
31979;DHT22;18502;43.574;1.276;2023-12-20T10:04:54;9.00;99.90
31979;DHT22;18502;43.574;1.276;2023-12-20T10:07:19;9.20;99.90
31979;DHT22;18502;43.574;1.276;2023-12-20T10:09:46;9.50;99.90
31979;DHT22;18502;43.574;1.276;2023-12-20T10:12:12;9.40;99.90
31979;DHT22;18502;43.574;1.276;2023-12-20T10:14:39;9.40;99.90
31979;DHT22;18502;43.574;1.276;2023-12-20T10:17:05;9.30;99.90
31979;DHT22;18502;43.574;1.276;2023-12-20T10:19:32;9.30;99.90
31979;DHT22;18502;43.574;1.276;2023-12-20T10:22:03;9.40;99.90
31979;DHT22;18502;43.574;1.276;2023-12-20T10:24:30;9.30;99.90
31979;DHT22;18502;43.574;1.276;2023-12-20T10:27:06;9.40;99.90
31979;DHT22;18502;43.574;1.276;2023-12-20T10:29:35;9.30;99.90
31979;DHT22;18502;43.574;1.276;2023-12-20T10:32:21;9.20;99.90
31979;DHT22;18502;43.574;1.276;2023-12-20T10:34:48;9.40;99.90
31979;DHT22;18502;43.574;1.276;2023-12-20T10:37:13;9.50;99.90
31979;DHT22;18502;43.574;1.276;2023-12-20T10:39:39;9.20;99.90
31979;DHT22;18502;43.574;1.276;2023-12-20T10:42:06;9.30;99.90
31979;DHT22;18502;43.574;1.276;2023-12-20T10:44:32;9.40;99.90
31979;DHT22;18502;43.574;1.276;2023-12-20T10:46:58;9.60;99.90
31979;DHT22;18502;43.574;1.276;2023-12-20T10:49:26;9.50;99.90
31979;DHT22;18502;43.574;1.276;2023-12-20T10:51:54;9.70;99.90
31979;DHT22;18502;43.574;1.276;2023-12-20T10:54:20;10.80;99.90
31979;DHT22;18502;43.574;1.276;2023-12-20T10:56:45;10.70;99.90
31979;DHT22;18502;43.574;1.276;2023-12-20T10:59:12;10.20;99.90
31979;DHT22;18502;43.574;1.276;2023-12-20T11:01:42;9.70;99.90
31979;DHT22;18502;43.574;1.276;2023-12-20T11:04:10;9.60;99.90
31979;DHT22;18502;43.574;1.276;2023-12-20T11:06:51;9.60;99.90
31979;DHT22;18502;43.574;1.276;2023-12-20T11:09:24;9.50;99.90
31979;DHT22;18502;43.574;1.276;2023-12-20T11:14:47;9.40;99.90
31979;DHT22;18502;43.574;1.276;2023-12-20T11:17:13;9.50;99.90
31979;DHT22;18502;43.574;1.276;2023-12-20T11:22:27;12.30;99.90
31979;DHT22;18502;43.574;1.276;2023-12-20T11:24:54;14.70;99.90
31979;DHT22;18502;43.574;1.276;2023-12-20T11:27:21;17.00;99.90
31979;DHT22;18502;43.574;1.276;2023-12-20T11:29:56;15.90;99.90
31979;DHT22;18502;43.574;1.276;2023-12-20T11:34:59;13.10;99.90
31979;DHT22;18502;43.574;1.276;2023-12-20T11:37:35;14.80;99.90
31979;DHT22;18502;43.574;1.276;2023-12-20T11:42:33;14.00;99.90
31979;DHT22;18502;43.574;1.276;2023-12-20T11:45:03;15.10;99.90
31979;DHT22;18502;43.574;1.276;2023-12-20T11:47:30;16.90;99.90
31979;DHT22;18502;43.574;1.276;2023-12-20T11:49:56;16.40;99.90
31979;DHT22;18502;43.574;1.276;2023-12-20T11:52:22;15.30;99.90
31979;DHT22;18502;43.574;1.276;2023-12-20T11:54:48;15.20;99.90
31979;DHT22;18502;43.574;1.276;2023-12-20T11:57:14;17.40;99.90
31979;DHT22;18502;43.574;1.276;2023-12-20T11:59:39;16.70;99.90
31979;DHT22;18502;43.574;1.276;2023-12-20T12:02:05;17.30;99.90
31979;DHT22;18502;43.574;1.276;2023-12-20T12:04:31;18.30;99.90
31979;DHT22;18502;43.574;1.276;2023-12-20T12:06:57;19.30;99.90
31979;DHT22;18502;43.574;1.276;2023-12-20T12:09:22;17.80;99.90
31979;DHT22;18502;43.574;1.276;2023-12-20T12:11:48;17.50;99.90
31979;DHT22;18502;43.574;1.276;2023-12-20T12:14:14;18.20;99.90
31979;DHT22;18502;43.574;1.276;2023-12-20T12:16:42;18.00;99.90
31979;DHT22;18502;43.574;1.276;2023-12-20T12:19:23;17.80;99.90
31979;DHT22;18502;43.574;1.276;2023-12-20T12:22:07;19.20;99.90
31979;DHT22;18502;43.574;1.276;2023-12-20T12:24:34;17.60;99.90
31979;DHT22;18502;43.574;1.276;2023-12-20T12:27:00;17.80;99.90
31979;DHT22;18502;43.574;1.276;2023-12-20T12:29:26;17.30;99.90
31979;DHT22;18502;43.574;1.276;2023-12-20T12:31:51;16.70;99.90
31979;DHT22;18502;43.574;1.276;2023-12-20T12:34:17;16.40;99.90
31979;DHT22;18502;43.574;1.276;2023-12-20T12:36:43;17.00;99.90
31979;DHT22;18502;43.574;1.276;2023-12-20T12:39:12;17.30;99.90
31979;DHT22;18502;43.574;1.276;2023-12-20T12:41:40;17.40;99.90
31979;DHT22;18502;43.574;1.276;2023-12-20T12:44:06;19.30;99.90
31979;DHT22;18502;43.574;1.276;2023-12-20T12:46:32;18.40;99.90
31979;DHT22;18502;43.574;1.276;2023-12-20T12:48:58;18.50;99.90
31979;DHT22;18502;43.574;1.276;2023-12-20T12:51:23;18.10;99.90
31979;DHT22;18502;43.574;1.276;2023-12-20T12:53:49;18.10;99.90
31979;DHT22;18502;43.574;1.276;2023-12-20T12:56:15;17.90;99.90
31979;DHT22;18502;43.574;1.276;2023-12-20T12:58:41;19.20;99.90
31979;DHT22;18502;43.574;1.276;2023-12-20T13:01:06;18.10;99.90
31979;DHT22;18502;43.574;1.276;2023-12-20T13:03:32;16.10;99.90
31979;DHT22;18502;43.574;1.276;2023-12-20T13:05:59;14.50;99.90
31979;DHT22;18502;43.574;1.276;2023-12-20T13:08:25;16.20;99.90
31979;DHT22;18502;43.574;1.276;2023-12-20T13:10:51;17.80;99.90
31979;DHT22;18502;43.574;1.276;2023-12-20T13:13:16;18.20;99.90
31979;DHT22;18502;43.574;1.276;2023-12-20T13:15:42;18.80;99.90
31979;DHT22;18502;43.574;1.276;2023-12-20T13:18:08;19.00;99.90
31979;DHT22;18502;43.574;1.276;2023-12-20T13:20:33;20.30;99.90
31979;DHT22;18502;43.574;1.276;2023-12-20T13:22:59;22.60;99.90
31979;DHT22;18502;43.574;1.276;2023-12-20T13:25:25;17.40;99.90
31979;DHT22;18502;43.574;1.276;2023-12-20T13:27:50;15.10;99.90
31979;DHT22;18502;43.574;1.276;2023-12-20T13:30:16;13.80;99.90
31979;DHT22;18502;43.574;1.276;2023-12-20T13:32:42;13.10;99.90
31979;DHT22;18502;43.574;1.276;2023-12-20T13:35:08;12.30;99.90
31979;DHT22;18502;43.574;1.276;2023-12-20T13:37:35;12.20;99.90
31979;DHT22;18502;43.574;1.276;2023-12-20T13:40:01;17.90;99.90
31979;DHT22;18502;43.574;1.276;2023-12-20T13:42:28;18.70;99.90
31979;DHT22;18502;43.574;1.276;2023-12-20T13:44:54;18.90;99.90
31979;DHT22;18502;43.574;1.276;2023-12-20T13:47:19;16.50;99.90
31979;DHT22;18502;43.574;1.276;2023-12-20T13:49:45;16.00;99.90
31979;DHT22;18502;43.574;1.276;2023-12-20T13:52:11;14.30;99.90
31979;DHT22;18502;43.574;1.276;2023-12-20T13:54:37;13.80;99.90
31979;DHT22;18502;43.574;1.276;2023-12-20T13:57:03;15.80;99.90
31979;DHT22;18502;43.574;1.276;2023-12-20T13:59:29;16.50;99.90
31979;DHT22;18502;43.574;1.276;2023-12-20T14:01:54;14.90;99.90
31979;DHT22;18502;43.574;1.276;2023-12-20T14:04:22;13.00;99.90
31979;DHT22;18502;43.574;1.276;2023-12-20T14:06:48;11.80;99.90
31979;DHT22;18502;43.574;1.276;2023-12-20T14:09:13;11.90;99.90
31979;DHT22;18502;43.574;1.276;2023-12-20T14:11:40;11.90;99.90
31979;DHT22;18502;43.574;1.276;2023-12-20T14:14:07;11.70;99.90
31979;DHT22;18502;43.574;1.276;2023-12-20T14:16:33;11.60;99.90
31979;DHT22;18502;43.574;1.276;2023-12-20T14:18:59;13.90;99.90
31979;DHT22;18502;43.574;1.276;2023-12-20T14:21:25;14.70;99.90
31979;DHT22;18502;43.574;1.276;2023-12-20T14:23:50;14.20;99.90
31979;DHT22;18502;43.574;1.276;2023-12-20T14:26:17;13.00;99.90
31979;DHT22;18502;43.574;1.276;2023-12-20T14:28:43;11.80;99.90
31979;DHT22;18502;43.574;1.276;2023-12-20T14:31:09;10.90;99.90
31979;DHT22;18502;43.574;1.276;2023-12-20T14:33:35;11.00;99.90
31979;DHT22;18502;43.574;1.276;2023-12-20T14:36:03;10.80;99.90
31979;DHT22;18502;43.574;1.276;2023-12-20T14:38:33;10.70;99.90
31979;DHT22;18502;43.574;1.276;2023-12-20T14:40:59;10.40;99.90
31979;DHT22;18502;43.574;1.276;2023-12-20T14:43:26;10.40;99.90
31979;DHT22;18502;43.574;1.276;2023-12-20T14:45:52;10.40;99.90
31979;DHT22;18502;43.574;1.276;2023-12-20T14:48:18;10.50;99.90
31979;DHT22;18502;43.574;1.276;2023-12-20T14:50:44;10.30;99.90
31979;DHT22;18502;43.574;1.276;2023-12-20T14:53:09;10.10;99.90
31979;DHT22;18502;43.574;1.276;2023-12-20T14:55:35;9.90;99.90
31979;DHT22;18502;43.574;1.276;2023-12-20T14:58:01;9.90;99.90
31979;DHT22;18502;43.574;1.276;2023-12-20T15:00:27;9.80;99.90
31979;DHT22;18502;43.574;1.276;2023-12-20T15:02:53;9.90;99.90
31979;DHT22;18502;43.574;1.276;2023-12-20T15:05:22;9.90;99.90
31979;DHT22;18502;43.574;1.276;2023-12-20T15:07:47;9.70;99.90
31979;DHT22;18502;43.574;1.276;2023-12-20T15:10:14;9.60;99.90
31979;DHT22;18502;43.574;1.276;2023-12-20T15:12:40;9.60;99.90
31979;DHT22;18502;43.574;1.276;2023-12-20T15:15:06;9.60;99.90
31979;DHT22;18502;43.574;1.276;2023-12-20T15:17:32;9.60;99.90
31979;DHT22;18502;43.574;1.276;2023-12-20T15:19:58;9.60;99.90
31979;DHT22;18502;43.574;1.276;2023-12-20T15:22:24;9.60;99.90
31979;DHT22;18502;43.574;1.276;2023-12-20T15:24:51;9.60;99.90
31979;DHT22;18502;43.574;1.276;2023-12-20T15:27:19;9.50;99.90
31979;DHT22;18502;43.574;1.276;2023-12-20T15:29:44;9.40;99.90
31979;DHT22;18502;43.574;1.276;2023-12-20T15:32:10;9.30;99.90
31979;DHT22;18502;43.574;1.276;2023-12-20T15:34:36;9.30;99.90
31979;DHT22;18502;43.574;1.276;2023-12-20T15:37:01;9.30;99.90
31979;DHT22;18502;43.574;1.276;2023-12-20T15:39:27;9.20;99.90
31979;DHT22;18502;43.574;1.276;2023-12-20T15:41:53;9.10;99.90
31979;DHT22;18502;43.574;1.276;2023-12-20T15:44:19;9.10;99.90
31979;DHT22;18502;43.574;1.276;2023-12-20T15:46:44;8.90;99.90
31979;DHT22;18502;43.574;1.276;2023-12-20T15:49:10;8.80;99.90